Time;durP1;ratioP1;P1;durP2;ratioP2;P2;SDS_P1;SDS_P2;PMS_P1;PMS_P2;Temp;Humidity;BMP_temperature;BMP_pressure;BME280_temperature;BME280_humidity;BME280_pressure;Samples;Min_cycle;Max_cycle;Signal;HPM_P1;HPM_P2
2021/07/01 00:01:53;;;;;;;4.10;1.65;;;;;;;25.08;43.39;100725.50;5034516;28;20048;-64
2021/07/01 00:04:21;;;;;;;5.75;1.70;;;;;;;25.06;43.47;100727.50;5034342;28;20128;-65
2021/07/01 00:06:48;;;;;;;6.13;1.50;;;;;;;25.03;43.62;100722.53;5034413;28;20410;-63
2021/07/01 00:09:17;;;;;;;5.18;1.88;;;;;;;25.05;43.42;100725.88;5034189;28;20053;-64
2021/07/01 00:11:49;;;;;;;6.88;1.65;;;;;;;25.04;43.30;100726.88;5034147;28;20061;-64
2021/07/01 00:14:18;;;;;;;4.85;1.67;;;;;;;25.04;43.39;100723.34;5033064;28;20041;-64
2021/07/01 00:16:47;;;;;;;4.13;1.38;;;;;;;25.02;43.36;100718.16;5033816;28;20409;-64
2021/07/01 00:19:15;;;;;;;4.20;1.30;;;;;;;24.98;43.37;100719.56;5034098;28;20045;-63
2021/07/01 00:21:42;;;;;;;4.97;1.50;;;;;;;25.01;43.00;100716.50;5034042;28;20049;-64
2021/07/01 00:24:08;;;;;;;8.57;1.40;;;;;;;25.01;42.90;100721.03;5034163;28;20415;-65
2021/07/01 00:26:35;;;;;;;5.05;1.60;;;;;;;24.97;42.86;100725.94;5033804;28;20062;-64
2021/07/01 00:29:02;;;;;;;6.30;1.73;;;;;;;24.94;42.99;100724.44;5033990;28;20046;-64
2021/07/01 00:31:30;;;;;;;6.38;1.45;;;;;;;24.91;43.10;100724.81;5032593;28;20053;-64
2021/07/01 00:33:58;;;;;;;3.90;1.38;;;;;;;24.89;42.89;100718.78;5033873;28;20402;-63
2021/07/01 00:36:24;;;;;;;5.00;1.52;;;;;;;24.88;42.93;100718.97;5033796;28;20506;-64
2021/07/01 00:38:52;;;;;;;5.82;1.60;;;;;;;24.86;42.79;100723.69;5033497;28;20049;-63
2021/07/01 00:41:19;;;;;;;6.50;1.98;;;;;;;24.84;42.75;100721.19;5053495;28;20045;-64
2021/07/01 00:43:47;;;;;;;6.35;1.95;;;;;;;24.77;43.25;100722.91;5053563;28;20053;-64
2021/07/01 00:46:14;;;;;;;3.70;1.63;;;;;;;24.71;43.58;100718.28;5053484;28;20053;-64
2021/07/01 00:48:41;;;;;;;2.92;1.40;;;;;;;24.69;43.88;100712.28;5053432;28;20409;-64
2021/07/01 00:51:08;;;;;;;5.95;1.60;;;;;;;24.65;43.90;100714.47;5052486;28;20045;-64
2021/07/01 00:53:35;;;;;;;7.75;2.13;;;;;;;24.62;43.82;100710.28;5053324;28;20053;-64
2021/07/01 00:56:05;;;;;;;7.10;1.90;;;;;;;24.57;44.19;100709.97;5049029;28;20064;-64
2021/07/01 00:58:33;;;;;;;7.43;1.90;;;;;;;24.53;44.67;100708.69;5033505;28;20053;-64
2021/07/01 01:01:02;;;;;;;5.88;1.70;;;;;;;24.48;44.83;100711.06;5033521;28;20041;-64
2021/07/01 01:03:30;;;;;;;9.52;2.40;;;;;;;24.46;44.77;100705.03;5033402;28;20045;-63
2021/07/01 01:05:57;;;;;;;13.10;2.83;;;;;;;24.43;45.06;100711.59;5033226;28;20081;-64
2021/07/01 01:08:24;;;;;;;8.07;1.90;;;;;;;24.39;45.38;100712.13;5033103;28;20054;-64
2021/07/01 01:10:52;;;;;;;7.22;2.10;;;;;;;24.39;45.65;100720.16;5033102;28;20103;-65
2021/07/01 01:13:26;;;;;;;6.57;2.20;;;;;;;24.31;45.38;100718.38;5033028;28;20045;-64
2021/07/01 01:16:03;;;;;;;8.82;2.72;;;;;;;24.27;45.71;100714.41;5033068;28;20087;-64
2021/07/01 01:18:32;;;;;;;8.10;2.25;;;;;;;24.27;45.61;100709.84;5032766;28;20049;-64
2021/07/01 01:20:59;;;;;;;6.25;2.35;;;;;;;24.21;45.97;100718.59;5032902;28;20050;-64
2021/07/01 01:23:27;;;;;;;6.47;1.70;;;;;;;24.10;46.22;100714.50;5032844;28;20123;-64
2021/07/01 01:25:59;;;;;;;6.22;1.85;;;;;;;23.91;46.49;100718.47;5032573;28;20049;-64
2021/07/01 01:28:27;;;;;;;7.90;2.20;;;;;;;23.88;46.54;100713.41;5032790;28;20479;-64
2021/07/01 01:30:54;;;;;;;4.50;1.92;;;;;;;23.91;46.73;100712.25;5032824;28;20406;-64
2021/07/01 01:33:21;;;;;;;8.05;2.17;;;;;;;23.87;46.88;100717.13;5032766;28;20124;-64
2021/07/01 01:35:47;;;;;;;10.70;2.17;;;;;;;23.87;46.77;100713.59;5032832;28;20049;-64
2021/07/01 01:38:16;;;;;;;5.05;2.00;;;;;;;23.87;47.07;100713.59;5032855;28;20060;-64
2021/07/01 01:40:45;;;;;;;8.60;3.08;;;;;;;23.84;47.21;100711.28;5032801;28;20132;-64
2021/07/01 01:43:14;;;;;;;5.07;2.17;;;;;;;23.78;47.47;100713.63;5032675;28;20055;-64
2021/07/01 01:45:42;;;;;;;7.03;2.55;;;;;;;23.76;47.46;100722.88;5032650;28;20100;-64
2021/07/01 01:48:09;;;;;;;7.72;2.60;;;;;;;23.72;47.51;100722.38;5032536;28;20054;-64
2021/07/01 01:50:36;;;;;;;4.50;2.03;;;;;;;23.68;47.51;100720.19;5032509;28;20095;-64
2021/07/01 01:53:03;;;;;;;5.70;2.25;;;;;;;23.68;47.68;100715.69;5032611;28;20494;-63
2021/07/01 01:55:30;;;;;;;5.10;2.00;;;;;;;23.68;47.54;100717.53;5032441;28;20050;-64
2021/07/01 01:57:57;;;;;;;5.80;1.80;;;;;;;23.70;46.90;100712.84;5032533;28;20057;-64
2021/07/01 02:00:26;;;;;;;8.70;2.10;;;;;;;23.71;47.03;100719.88;5032372;28;20051;-64
2021/07/01 02:02:53;;;;;;;6.50;2.10;;;;;;;23.67;47.30;100721.22;5032532;28;20050;-64
2021/07/01 02:05:21;;;;;;;4.03;2.00;;;;;;;23.68;46.90;100714.84;5032377;28;20046;-65
2021/07/01 02:07:48;;;;;;;5.35;2.40;;;;;;;23.63;47.11;100712.72;5032223;28;20118;-65
2021/07/01 02:10:23;;;;;;;6.57;2.40;;;;;;;23.61;47.20;100712.84;5032429;28;20050;-64
2021/07/01 02:12:50;;;;;;;5.10;2.38;;;;;;;23.59;47.85;100712.22;5032297;28;20099;-64
2021/07/01 02:15:21;;;;;;;3.83;2.22;;;;;;;23.58;48.13;100710.53;5032259;28;20105;-64
2021/07/01 02:17:52;;;;;;;6.43;2.30;;;;;;;23.52;48.13;100718.44;5032074;28;20057;-64
2021/07/01 02:20:23;;;;;;;6.20;2.00;;;;;;;23.44;48.42;100721.97;5031039;28;20041;-64
2021/07/01 02:22:50;;;;;;;7.32;2.10;;;;;;;23.45;48.66;100727.16;5032174;28;20126;-64
2021/07/01 02:25:18;;;;;;;8.52;2.55;;;;;;;23.41;48.95;100720.44;5032252;28;20045;-64
2021/07/01 02:27:45;;;;;;;5.00;2.00;;;;;;;23.39;48.87;100727.84;5032114;28;20057;-64
2021/07/01 02:30:15;;;;;;;5.55;2.35;;;;;;;23.33;49.24;100722.34;5032134;28;20057;-64
2021/07/01 02:32:42;;;;;;;9.88;2.25;;;;;;;23.31;49.67;100734.06;5030819;28;20049;-65
2021/07/01 02:35:28;;;;;;;6.70;2.95;;;;;;;23.27;49.51;100735.41;5031979;28;20045;-64
2021/07/01 02:37:55;;;;;;;10.65;2.35;;;;;;;23.25;49.67;100745.44;5033716;28;20099;-64
2021/07/01 02:40:22;;;;;;;7.22;2.67;;;;;;;23.22;49.84;100742.28;5035879;28;20072;-64
2021/07/01 02:42:48;;;;;;;11.52;2.50;;;;;;;23.19;50.31;100746.13;5035942;28;20053;-65
2021/07/01 02:45:15;;;;;;;7.90;3.40;;;;;;;23.15;50.33;100756.34;5035850;28;20050;-64
2021/07/01 02:47:42;;;;;;;8.93;3.20;;;;;;;23.12;50.33;100761.16;5035834;28;20053;-65
2021/07/01 02:50:10;;;;;;;5.20;2.80;;;;;;;23.07;50.28;100761.69;5035894;28;20124;-64
2021/07/01 02:52:37;;;;;;;5.50;2.78;;;;;;;23.07;50.04;100764.34;5035581;28;20091;-64
2021/07/01 02:55:06;;;;;;;6.93;2.80;;;;;;;23.04;50.17;100758.50;5035898;28;20491;-64
2021/07/01 02:57:33;;;;;;;9.35;3.63;;;;;;;22.99;50.60;100757.16;5035674;28;20046;-64
2021/07/01 03:00:00;;;;;;;7.55;2.83;;;;;;;22.95;50.57;100753.13;5035749;28;20048;-64
2021/07/01 03:02:27;;;;;;;9.77;2.47;;;;;;;22.92;50.61;100752.63;5036555;28;20099;-63
2021/07/01 03:04:54;;;;;;;11.25;2.65;;;;;;;22.91;50.57;100759.84;5051431;28;20045;-63
2021/07/01 03:07:20;;;;;;;8.63;2.55;;;;;;;22.93;50.42;100757.84;5051652;28;20525;-63
2021/07/01 03:09:47;;;;;;;9.73;2.75;;;;;;;22.92;50.40;100761.50;5051477;28;20052;-64
2021/07/01 03:12:13;;;;;;;7.95;2.58;;;;;;;22.91;50.33;100769.72;5032346;28;20534;-64
2021/07/01 03:14:40;;;;;;;7.38;2.60;;;;;;;22.88;50.89;100764.69;5031970;28;20041;-64
2021/07/01 03:17:07;;;;;;;8.23;2.88;;;;;;;22.88;50.76;100765.53;5031600;28;20058;-63
2021/07/01 03:19:34;;;;;;;7.38;2.72;;;;;;;22.86;50.58;100759.50;5031875;28;20055;-63
2021/07/01 03:22:00;;;;;;;6.30;2.40;;;;;;;22.82;50.80;100766.19;5031990;28;20111;-64
2021/07/01 03:24:27;;;;;;;9.88;2.97;;;;;;;22.79;51.06;100766.50;5031876;28;20123;-63
2021/07/01 03:26:54;;;;;;;6.75;2.83;;;;;;;22.81;50.96;100761.84;5031946;28;20053;-63
2021/07/01 03:29:20;;;;;;;10.98;3.58;;;;;;;22.78;50.46;100763.00;5031653;28;20046;-63
2021/07/01 03:31:47;;;;;;;10.05;3.10;;;;;;;22.78;50.64;100764.88;5031701;28;20509;-63
2021/07/01 03:34:14;;;;;;;4.22;2.38;;;;;;;22.80;50.40;100762.84;5031647;28;20050;-63
2021/07/01 03:36:40;;;;;;;5.78;2.65;;;;;;;22.78;50.24;100762.19;5031525;28;20131;-63
2021/07/01 03:39:07;;;;;;;8.15;2.88;;;;;;;22.78;50.70;100762.19;5031767;28;20045;-63
2021/07/01 03:41:34;;;;;;;12.23;3.80;;;;;;;22.75;50.58;100760.66;5031731;28;20406;-64
2021/07/01 03:44:01;;;;;;;13.60;3.30;;;;;;;22.75;50.67;100762.50;5031652;28;20046;-63
2021/07/01 03:46:27;;;;;;;9.43;3.83;;;;;;;22.75;50.93;100760.66;5031006;28;20049;-64
2021/07/01 03:48:54;;;;;;;11.00;5.10;;;;;;;22.73;50.79;100762.69;5031391;28;20103;-63
2021/07/01 03:51:21;;;;;;;13.15;4.15;;;;;;;22.74;50.76;100766.19;5031570;28;20068;-64
2021/07/01 03:53:47;;;;;;;12.02;3.97;;;;;;;22.64;51.00;100769.88;5031560;28;20045;-63
2021/07/01 03:56:14;;;;;;;10.60;4.00;;;;;;;22.64;50.67;100766.38;5031353;28;20049;-64
2021/07/01 03:58:41;;;;;;;13.10;4.88;;;;;;;22.61;51.00;100775.56;5031066;28;20049;-63
2021/07/01 04:01:08;;;;;;;19.30;5.55;;;;;;;22.63;51.21;100775.38;5031251;28;20060;-64
2021/07/01 04:03:34;;;;;;;17.27;6.13;;;;;;;22.63;51.06;100770.84;5031081;28;20046;-63
2021/07/01 04:06:02;;;;;;;24.27;7.25;;;;;;;22.66;51.16;100769.69;5031295;28;20045;-68
2021/07/01 04:08:29;;;;;;;15.75;6.95;;;;;;;22.65;51.27;100768.88;5031076;28;20053;-63
2021/07/01 04:10:56;;;;;;;20.20;6.18;;;;;;;22.66;51.02;100762.53;5030919;28;20050;-63
2021/07/01 04:13:22;;;;;;;14.85;4.80;;;;;;;22.70;51.36;100767.53;5031126;28;20046;-63
2021/07/01 04:15:50;;;;;;;8.63;3.83;;;;;;;22.73;50.85;100768.03;5033989;28;20045;-63
2021/07/01 04:18:18;;;;;;;12.60;4.60;;;;;;;22.75;50.65;100766.00;5039732;28;20053;-64
2021/07/01 04:20:45;;;;;;;15.02;4.50;;;;;;;22.77;50.64;100763.19;5044755;28;20127;-63
2021/07/01 04:23:11;;;;;;;11.88;3.92;;;;;;;22.82;50.95;100767.03;5031012;28;20053;-63
2021/07/01 04:25:38;;;;;;;9.68;3.13;;;;;;;22.80;50.66;100762.84;5041180;28;20057;-63
2021/07/01 04:28:05;;;;;;;9.65;2.90;;;;;;;22.88;50.41;100764.69;5050980;28;20445;-63
2021/07/01 04:30:32;;;;;;;8.68;3.03;;;;;;;22.92;50.77;100766.00;5050815;28;20053;-63
2021/07/01 04:32:58;;;;;;;14.18;3.22;;;;;;;22.92;50.92;100764.19;5042648;28;20456;-63
2021/07/01 04:35:25;;;;;;;9.23;2.60;;;;;;;22.95;50.35;100765.69;5038049;28;20049;-63
2021/07/01 04:37:52;;;;;;;6.30;2.72;;;;;;;22.95;50.36;100771.88;5030588;28;20072;-64
2021/07/01 04:40:18;;;;;;;9.70;2.90;;;;;;;23.02;50.46;100765.84;5044537;28;20052;-63
2021/07/01 04:42:45;;;;;;;7.75;2.47;;;;;;;23.06;50.61;100767.19;5050178;28;20052;-62
2021/07/01 04:45:13;;;;;;;5.47;2.40;;;;;;;23.08;50.47;100765.19;5050272;28;20485;-63
2021/07/01 04:47:40;;;;;;;9.75;2.42;;;;;;;23.13;50.16;100773.53;5050050;28;20056;-63
2021/07/01 04:50:07;;;;;;;9.98;2.55;;;;;;;23.14;50.07;100768.00;5045169;28;20544;-62
2021/07/01 04:52:34;;;;;;;7.47;2.42;;;;;;;23.20;49.89;100777.25;5030125;28;20100;-63
2021/07/01 04:55:01;;;;;;;4.95;2.35;;;;;;;23.23;49.83;100776.91;5030212;28;20060;-63
2021/07/01 04:57:28;;;;;;;4.72;2.45;;;;;;;23.27;49.37;100777.41;5029873;28;20045;-63
2021/07/01 04:59:54;;;;;;;7.18;2.50;;;;;;;23.30;49.47;100780.56;5029487;28;20049;-63
2021/07/01 05:02:21;;;;;;;7.47;2.33;;;;;;;23.42;49.14;100783.72;5029776;28;20049;-63
2021/07/01 05:04:48;;;;;;;5.25;1.92;;;;;;;23.49;48.41;100783.91;5038278;28;20052;-63
2021/07/01 05:07:14;;;;;;;9.23;2.05;;;;;;;23.55;48.56;100771.66;5046081;28;20133;-63
2021/07/01 05:09:41;;;;;;;7.05;2.90;;;;;;;23.57;48.56;100772.31;5029817;28;20107;-63
2021/07/01 05:12:08;;;;;;;5.03;2.47;;;;;;;23.63;47.89;100767.09;5029990;28;20053;-63
2021/07/01 05:14:34;;;;;;;8.38;2.15;;;;;;;23.70;47.85;100764.56;5029723;28;20049;-63
2021/07/01 05:17:01;;;;;;;7.65;2.28;;;;;;;23.75;47.29;100770.25;5045536;28;20048;-63
2021/07/01 05:19:28;;;;;;;9.48;2.05;;;;;;;23.84;46.84;100776.41;5049602;28;20080;-64
2021/07/01 05:21:54;;;;;;;7.72;2.30;;;;;;;23.92;46.50;100776.41;5050044;28;20421;-63
2021/07/01 05:24:21;;;;;;;7.03;2.05;;;;;;;24.01;46.42;100774.53;5032207;28;20050;-63
2021/07/01 05:26:48;;;;;;;7.22;2.25;;;;;;;24.07;46.11;100770.31;5046693;28;20037;-65
2021/07/01 05:29:15;;;;;;;9.02;2.40;;;;;;;24.09;46.14;100773.66;5049180;28;20052;-64
2021/07/01 05:32:02;;;;;;;7.88;2.22;;;;;;;24.16;45.44;100779.97;5049652;28;20049;-65
2021/07/01 05:34:28;;;;;;;7.07;2.25;;;;;;;24.17;45.53;100784.34;5048865;28;20064;-64
2021/07/01 05:37:01;;;;;;;7.45;2.13;;;;;;;24.20;45.48;100778.63;5044182;28;20056;-66
2021/07/01 05:39:33;;;;;;;8.13;2.33;;;;;;;24.10;45.46;100778.84;5038637;28;20075;-65
2021/07/01 05:42:00;;;;;;;6.43;2.03;;;;;;;24.11;45.42;100795.75;5045383;28;20045;-63
2021/07/01 05:44:26;;;;;;;10.05;2.13;;;;;;;24.22;45.02;100794.53;5029389;28;20057;-64
2021/07/01 05:46:53;;;;;;;5.97;2.10;;;;;;;24.36;44.39;100796.47;5049062;28;20055;-65
2021/07/01 05:49:20;;;;;;;6.68;1.80;;;;;;;24.39;44.80;100800.63;5044494;28;20053;-64
2021/07/01 05:51:49;;;;;;;5.10;2.25;;;;;;;24.44;44.16;100791.06;5033110;28;20044;-63
2021/07/01 05:54:53;;;;;;;9.02;2.30;;;;;;;24.56;44.15;100786.13;5042355;28;20041;-63
2021/07/01 05:57:08;;;;;;;6.72;2.08;;;;;;;24.67;44.11;100784.06;5028693;28;20049;-63
2021/07/01 05:59:35;;;;;;;5.47;1.83;;;;;;;24.70;43.85;100781.84;5028868;28;20042;-63
2021/07/01 06:02:01;;;;;;;6.93;2.17;;;;;;;24.65;44.09;100776.19;5027668;28;20415;-63
2021/07/01 06:04:28;;;;;;;7.10;2.20;;;;;;;24.71;43.92;100780.00;5028959;28;20041;-63
2021/07/01 06:06:55;;;;;;;5.53;1.90;;;;;;;24.79;43.74;100774.56;5028508;28;20543;-63
2021/07/01 06:09:27;;;;;;;5.63;2.05;;;;;;;24.87;43.44;100785.22;5029036;28;20050;-66
2021/07/01 06:11:55;;;;;;;8.15;2.10;;;;;;;24.91;43.39;100791.94;5028541;28;20502;-62
2021/07/01 06:14:24;;;;;;;4.68;1.90;;;;;;;24.98;43.07;100783.97;5033274;28;20049;-64
2021/07/01 06:16:56;;;;;;;5.50;1.33;;;;;;;25.04;42.56;100787.78;5031721;28;20059;-62
2021/07/01 06:19:23;;;;;;;5.95;1.13;;;;;;;25.08;42.31;100779.19;5050862;28;20053;-66
2021/07/01 06:21:52;;;;;;;6.38;1.30;;;;;;;25.13;42.05;100781.34;5052365;28;20048;-63
2021/07/01 06:24:18;;;;;;;5.90;1.23;;;;;;;25.22;41.64;100779.41;5048992;28;20437;-71
2021/07/01 06:26:47;;;;;;;2.65;0.90;;;;;;;25.23;40.94;100779.22;5037218;28;20049;-69
2021/07/01 06:29:15;;;;;;;7.28;1.10;;;;;;;25.30;40.54;100782.00;5033020;28;20103;-64
2021/07/01 06:31:42;;;;;;;5.43;0.85;;;;;;;25.45;40.48;100784.75;5039531;28;20071;-66
2021/07/01 06:34:09;;;;;;;2.60;0.80;;;;;;;25.45;40.44;100784.75;5039626;28;20076;-65
2021/07/01 06:36:41;;;;;;;3.03;1.30;;;;;;;25.46;40.04;100785.56;5043601;28;20095;-64
2021/07/01 06:39:08;;;;;;;5.38;1.00;;;;;;;25.48;40.00;100787.06;5032728;28;20056;-65
2021/07/01 06:41:37;;;;;;;5.18;1.63;;;;;;;25.58;39.68;100792.16;5032414;28;20049;-65
2021/07/01 06:44:06;;;;;;;4.47;1.10;;;;;;;25.62;39.70;100790.75;5032495;28;20052;-65
2021/07/01 06:46:34;;;;;;;3.78;1.02;;;;;;;25.70;39.34;100781.78;5032501;28;20099;-65
2021/07/01 06:49:01;;;;;;;5.45;1.40;;;;;;;25.75;39.08;100784.75;5032412;28;20057;-65
2021/07/01 06:51:37;;;;;;;5.30;1.00;;;;;;;25.74;39.12;100788.47;5032362;28;20053;-65
2021/07/01 06:54:05;;;;;;;8.48;1.38;;;;;;;25.86;39.01;100792.31;5032434;28;20049;-64
2021/07/01 06:56:38;;;;;;;5.57;1.42;;;;;;;25.86;38.78;100795.00;5032544;28;20049;-65
2021/07/01 06:59:09;;;;;;;6.72;1.25;;;;;;;26.04;38.72;100793.78;5030872;28;20528;-65
2021/07/01 07:01:37;;;;;;;7.78;1.88;;;;;;;26.03;38.70;100801.03;5032056;28;20128;-65
2021/07/01 07:04:17;;;;;;;5.13;1.23;;;;;;;26.12;38.81;100799.13;5032349;28;20053;-64
2021/07/01 07:06:45;;;;;;;4.88;1.60;;;;;;;26.33;38.75;100800.19;5032056;28;20053;-64
2021/07/01 07:09:15;;;;;;;8.38;2.33;;;;;;;26.26;38.92;100796.56;5032296;28;20050;-65
2021/07/01 07:11:43;;;;;;;4.78;1.40;;;;;;;26.22;38.92;100798.78;5031999;28;20521;-64
2021/07/01 07:14:11;;;;;;;5.05;1.35;;;;;;;26.29;38.56;100797.03;5027369;28;20140;-64
2021/07/01 07:16:41;;;;;;;9.65;1.30;;;;;;;26.47;38.50;100788.53;5046371;28;20044;-65
2021/07/01 07:19:09;;;;;;;4.85;1.30;;;;;;;26.47;38.54;100793.91;5051205;28;20460;-64
2021/07/01 07:21:44;;;;;;;3.53;1.20;;;;;;;26.61;38.27;100800.25;5051294;28;20055;-65
2021/07/01 07:24:16;;;;;;;3.67;1.00;;;;;;;26.59;38.30;100796.94;5043959;28;20041;-65
2021/07/01 07:26:49;;;;;;;5.35;1.23;;;;;;;26.63;38.12;100795.53;5031059;28;20053;-65
2021/07/01 07:29:35;;;;;;;4.95;1.20;;;;;;;26.76;37.75;100794.03;5045495;28;20107;-64
2021/07/01 07:32:04;;;;;;;2.38;0.88;;;;;;;26.98;37.39;100800.22;5050560;28;20041;-65
2021/07/01 07:34:33;;;;;;;5.60;1.05;;;;;;;26.96;37.30;100803.09;5050494;28;20082;-64
2021/07/01 07:37:00;;;;;;;6.00;0.95;;;;;;;27.08;37.14;100800.72;5051678;28;20056;-66
2021/07/01 07:39:28;;;;;;;6.90;1.10;;;;;;;27.05;37.56;100801.94;5051291;28;20057;-68
2021/07/01 07:41:56;;;;;;;3.85;0.95;;;;;;;27.15;37.09;100798.91;5043307;28;20041;-65
2021/07/01 07:44:23;;;;;;;3.17;1.10;;;;;;;27.25;36.89;100795.88;5048469;28;20052;-66
2021/07/01 07:46:51;;;;;;;2.88;1.00;;;;;;;27.43;36.59;100800.81;5043472;28;20132;-65
2021/07/01 07:49:19;;;;;;;5.22;1.38;;;;;;;27.44;36.72;100802.47;5035122;28;20060;-64
2021/07/01 07:51:50;;;;;;;2.53;0.90;;;;;;;27.45;36.64;100803.28;5043515;28;20049;-66
2021/07/01 07:54:23;;;;;;;6.13;1.10;;;;;;;27.53;36.34;100803.16;5047252;28;20127;-67
2021/07/01 07:56:52;;;;;;;3.03;1.38;;;;;;;27.67;36.39;100804.06;5043621;28;20046;-65
2021/07/01 07:59:21;;;;;;;1.55;0.88;;;;;;;27.69;36.33;100801.97;5045138;28;20071;-65
2021/07/01 08:01:50;;;;;;;5.57;1.75;;;;;;;27.74;36.31;100802.22;5043514;28;20041;-64
2021/07/01 08:04:17;;;;;;;6.30;1.10;;;;;;;27.89;36.20;100802.09;5049420;28;20049;-64
2021/07/01 08:06:47;;;;;;;4.15;1.40;;;;;;;27.96;35.72;100794.03;5047201;28;20049;-65
2021/07/01 08:09:15;;;;;;;2.85;1.13;;;;;;;28.03;35.75;100790.34;5050839;28;20055;-65
2021/07/01 08:11:42;;;;;;;8.50;1.60;;;;;;;28.11;35.53;100794.75;5050445;28;20822;-64
2021/07/01 08:14:12;;;;;;;3.42;1.13;;;;;;;28.16;35.23;100781.50;5050630;28;20049;-65
2021/07/01 08:16:38;;;;;;;3.03;1.13;;;;;;;28.31;35.09;100780.47;5050309;28;20045;-65
2021/07/01 08:19:05;;;;;;;7.20;1.45;;;;;;;28.33;35.07;100784.66;5050178;28;20053;-65
2021/07/01 08:21:32;;;;;;;3.53;1.05;;;;;;;28.38;35.04;100784.03;5049400;28;20080;-65
2021/07/01 08:23:59;;;;;;;3.15;1.08;;;;;;;28.51;34.79;100778.66;5030733;28;20053;-64
2021/07/01 08:26:25;;;;;;;3.15;1.48;;;;;;;28.75;34.54;100783.72;5031961;28;20524;-65
2021/07/01 08:28:55;;;;;;;7.05;1.50;;;;;;;28.77;34.68;100781.63;5043065;28;20504;-65
2021/07/01 08:31:22;;;;;;;1.88;0.88;;;;;;;28.86;34.44;100769.56;5030007;28;20494;-65
2021/07/01 08:33:51;;;;;;;2.65;0.93;;;;;;;28.97;34.11;100762.72;5047424;28;20119;-65
2021/07/01 08:36:20;;;;;;;4.15;1.20;;;;;;;29.14;33.93;100766.66;5047211;28;20057;-64
2021/07/01 08:38:53;;;;;;;2.38;0.70;;;;;;;29.21;33.22;100765.81;5048195;28;20041;-65
2021/07/01 08:41:42;;;;;;;5.63;1.65;;;;;;;29.34;33.18;100762.31;5049651;28;20049;-64
2021/07/01 08:44:17;;;;;;;3.55;0.90;;;;;;;29.49;32.83;100754.78;5047917;28;20041;-65
2021/07/01 08:47:08;;;;;;;2.75;0.77;;;;;;;29.65;32.69;100759.72;5050059;28;20088;-65
2021/07/01 08:49:54;;;;;;;3.90;1.00;;;;;;;29.64;32.52;100752.63;5049809;28;20052;-65
2021/07/01 08:52:30;;;;;;;2.05;1.02;;;;;;;29.88;32.17;100744.88;5049658;28;20045;-66
2021/07/01 08:55:07;;;;;;;4.05;1.00;;;;;;;29.99;31.66;100751.47;5048245;28;20045;-65
2021/07/01 08:57:36;;;;;;;3.13;1.00;;;;;;;30.02;31.93;100753.75;5040212;28;20060;-66
2021/07/01 09:00:12;;;;;;;3.55;1.30;;;;;;;30.11;31.89;100755.16;5029919;28;20041;-65
2021/07/01 09:02:44;;;;;;;3.67;1.00;;;;;;;30.23;31.23;100751.78;5029974;28;20050;-66
2021/07/01 09:05:17;;;;;;;3.50;1.20;;;;;;;30.15;31.54;100754.75;5030198;28;20408;-66
2021/07/01 09:07:53;;;;;;;3.85;1.05;;;;;;;30.37;31.03;100756.06;5029283;28;20050;-65
2021/07/01 09:10:21;;;;;;;3.63;0.80;;;;;;;30.36;30.71;100757.13;5044616;28;20048;-65
2021/07/01 09:12:52;;;;;;;4.40;0.95;;;;;;;30.60;30.20;100752.81;5045936;28;20095;-65
2021/07/01 09:15:19;;;;;;;3.83;1.00;;;;;;;30.80;30.16;100761.81;5046711;28;20052;-68
2021/07/01 09:17:52;;;;;;;3.30;0.85;;;;;;;30.54;30.79;100758.28;5044517;28;20049;-67
2021/07/01 09:20:34;;;;;;;7.80;1.05;;;;;;;30.24;30.80;100759.66;5048105;28;20041;-67
2021/07/01 09:23:02;;;;;;;4.90;1.00;;;;;;;30.10;31.06;100764.31;5046572;28;20041;-69
2021/07/01 09:25:31;;;;;;;5.13;1.00;;;;;;;30.20;30.81;100757.63;5046998;28;20048;-68
2021/07/01 09:27:59;;;;;;;6.35;1.08;;;;;;;30.26;30.77;100757.59;5046450;28;20044;-63
2021/07/01 09:30:28;;;;;;;6.20;1.35;;;;;;;30.58;30.78;100757.59;5046489;28;20056;-64
2021/07/01 09:33:00;;;;;;;3.42;1.00;;;;;;;30.37;31.29;100755.22;5045842;28;20041;-65
2021/07/01 09:35:29;;;;;;;4.53;1.13;;;;;;;30.30;30.88;100756.09;5048295;28;20045;-65
2021/07/01 09:38:00;;;;;;;2.55;1.17;;;;;;;30.32;31.24;100760.47;5048362;28;20551;-65
2021/07/01 09:40:26;;;;;;;4.85;1.10;;;;;;;30.41;30.85;100756.44;5048446;28;20099;-65
2021/07/01 09:42:56;;;;;;;3.95;0.93;;;;;;;30.55;30.67;100751.78;5048704;28;20049;-65
2021/07/01 09:45:25;;;;;;;9.90;1.33;;;;;;;30.59;31.06;100745.72;5048772;28;20051;-65
2021/07/01 09:47:55;;;;;;;3.22;1.00;;;;;;;30.85;30.64;100753.84;5047459;28;20049;-66
2021/07/01 09:50:24;;;;;;;3.70;1.10;;;;;;;31.13;30.24;100739.03;5048664;28;20053;-65
2021/07/01 09:52:57;;;;;;;9.70;1.95;;;;;;;31.37;29.64;100743.56;5048690;28;20049;-65
2021/07/01 09:55:29;;;;;;;6.60;1.33;;;;;;;31.40;30.16;100740.41;5048566;28;20041;-65
2021/07/01 09:58:02;;;;;;;4.57;1.38;;;;;;;31.61;29.50;100738.28;5048474;28;20478;-65
2021/07/01 10:00:31;;;;;;;3.33;1.08;;;;;;;31.84;29.40;100747.66;5048374;28;20049;-65
2021/07/01 10:03:03;;;;;;;7.82;1.60;;;;;;;31.82;29.18;100737.03;5048756;28;20556;-65
2021/07/01 10:05:30;;;;;;;6.68;1.33;;;;;;;31.96;29.04;100750.41;5047876;28;20056;-66
2021/07/01 10:07:57;;;;;;;2.60;1.00;;;;;;;31.91;29.33;100745.69;5048202;28;20052;-65
2021/07/01 10:10:24;;;;;;;6.13;1.23;;;;;;;32.08;29.37;100741.25;5048335;28;20055;-65
2021/07/01 10:12:53;;;;;;;7.70;1.20;;;;;;;32.04;29.32;100736.53;5048826;28;20489;-65
2021/07/01 10:15:40;;;;;;;7.55;1.10;;;;;;;31.96;29.12;100734.97;5048151;28;20048;-65
2021/07/01 10:18:11;;;;;;;5.97;1.65;;;;;;;32.06;29.48;100727.09;5048404;28;20049;-65
2021/07/01 10:20:55;;;;;;;5.70;1.30;;;;;;;31.96;29.29;100734.13;5046038;28;20071;-65
2021/07/01 10:23:29;;;;;;;3.42;0.90;;;;;;;31.98;29.47;100732.00;5028530;28;20053;-65
2021/07/01 10:25:59;;;;;;;6.38;2.05;;;;;;;31.78;29.96;100737.69;5028322;28;20045;-65
2021/07/01 10:28:30;;;;;;;5.05;1.10;;;;;;;31.43;30.46;100741.84;5028623;28;20045;-65
2021/07/01 10:31:08;;;;;;;3.47;1.20;;;;;;;31.07;30.60;100738.88;5028406;28;20050;-65
2021/07/01 10:33:36;;;;;;;4.45;1.40;;;;;;;30.95;30.88;100741.44;5028035;28;20060;-65
2021/07/01 10:36:06;;;;;;;5.13;1.05;;;;;;;31.22;30.37;100734.97;5028081;28;20076;-65
2021/07/01 10:38:44;;;;;;;6.55;1.63;;;;;;;31.52;30.46;100735.06;5028175;28;20049;-65
2021/07/01 10:41:24;;;;;;;4.97;1.48;;;;;;;31.53;30.20;100735.91;5028271;28;20045;-65
2021/07/01 10:43:51;;;;;;;4.35;1.70;;;;;;;31.01;31.42;100734.31;5028291;28;20056;-65
2021/07/01 10:46:18;;;;;;;3.85;1.10;;;;;;;30.94;31.08;100733.53;5028025;28;20103;-65
2021/07/01 10:48:56;;;;;;;3.92;1.05;;;;;;;31.47;30.46;100740.34;5028100;28;20077;-65
2021/07/01 10:51:27;;;;;;;2.60;1.35;;;;;;;31.89;29.60;100743.19;5028524;28;20071;-65
2021/07/01 10:54:09;;;;;;;3.58;1.08;;;;;;;32.35;29.02;100724.63;5028290;28;20045;-65
2021/07/01 10:56:41;;;;;;;5.88;1.38;;;;;;;32.14;29.25;100717.78;5028375;28;20049;-65
2021/07/01 10:59:15;;;;;;;3.65;1.25;;;;;;;32.35;29.44;100724.63;5029823;28;20201;-66
2021/07/01 11:01:44;;;;;;;4.22;1.02;;;;;;;32.54;29.31;100722.66;5034551;28;20041;-65
2021/07/01 11:04:16;;;;;;;3.53;1.20;;;;;;;32.10;29.95;100722.03;5034970;28;20037;-66
2021/07/01 11:06:58;;;;;;;7.32;1.20;;;;;;;32.03;30.35;100718.56;5046038;28;20056;-66
2021/07/01 11:09:45;;;;;;;5.03;1.17;;;;;;;32.23;29.70;100719.13;5031638;28;20140;-66
2021/07/01 11:12:24;;;;;;;6.38;1.00;;;;;;;31.96;30.01;100724.09;5031652;28;20426;-66
2021/07/01 11:14:54;;;;;;;4.85;1.42;;;;;;;32.02;29.89;100725.91;5031682;28;20099;-66
2021/07/01 11:17:32;;;;;;;4.88;1.45;;;;;;;32.33;29.49;100713.16;5031429;28;20053;-66
2021/07/01 11:20:14;;;;;;;5.03;1.17;;;;;;;32.46;29.53;100711.28;5031023;28;20049;-66
2021/07/01 11:23:00;;;;;;;5.85;1.20;;;;;;;32.49;29.41;100719.78;5031352;28;20060;-66
2021/07/01 11:25:42;;;;;;;;;;;;;;;32.15;30.15;100705.03;5032004;28;20050;-67
2021/07/01 11:28:17;;;;;;;3.30;1.20;;;;;;;31.83;30.51;100711.53;5031755;28;20293;-66
2021/07/01 11:30:53;;;;;;;3.40;1.40;;;;;;;31.49;31.01;100721.97;5031562;28;20406;-66
2021/07/01 11:33:21;;;;;;;4.90;1.55;;;;;;;31.52;30.94;100717.97;5030895;28;20761;-66
2021/07/01 11:35:49;;;;;;;4.15;1.40;;;;;;;31.74;30.97;100713.75;5030834;28;20049;-66